sensor_id;sensor_type;location;lat;lon;timestamp;pressure;altitude;pressure_sealevel;temperature;humidity
9225;BME280;4647;48.072;11.616;2024-03-23T00:54:49;94776.22;;;8.39;80.08
9225;BME280;4647;48.072;11.616;2024-03-23T00:57:15;94775.06;;;8.40;79.93
9225;BME280;4647;48.072;11.616;2024-03-23T00:59:41;94772.34;;;8.40;80.05
9225;BME280;4647;48.072;11.616;2024-03-23T01:02:07;94770.22;;;8.24;80.70
9225;BME280;4647;48.072;11.616;2024-03-23T01:04:32;94758.06;;;8.13;80.98
9225;BME280;4647;48.072;11.616;2024-03-23T01:06:58;94762.41;;;8.03;81.78
9225;BME280;4647;48.072;11.616;2024-03-23T01:09:27;94746.31;;;7.96;81.99
9225;BME280;4647;48.072;11.616;2024-03-23T01:11:52;94746.03;;;7.90;82.34
9225;BME280;4647;48.072;11.616;2024-03-23T01:14:19;94745.38;;;7.79;82.83
9225;BME280;4647;48.072;11.616;2024-03-23T01:16:44;94739.66;;;7.74;82.95
9225;BME280;4647;48.072;11.616;2024-03-23T01:19:10;94733.91;;;7.72;83.11
9225;BME280;4647;48.072;11.616;2024-03-23T01:21:36;94741.69;;;7.66;83.24
9225;BME280;4647;48.072;11.616;2024-03-23T01:24:02;94735.19;;;7.63;83.22
9225;BME280;4647;48.072;11.616;2024-03-23T01:26:30;94738.66;;;7.64;83.19
9225;BME280;4647;48.072;11.616;2024-03-23T01:28:56;94740.97;;;7.62;83.29
9225;BME280;4647;48.072;11.616;2024-03-23T01:31:22;94734.47;;;7.56;83.31
9225;BME280;4647;48.072;11.616;2024-03-23T01:33:48;94735.59;;;7.62;82.99
9225;BME280;4647;48.072;11.616;2024-03-23T01:36:14;94732.50;;;7.63;82.80
9225;BME280;4647;48.072;11.616;2024-03-23T01:38:39;94732.28;;;7.78;82.70
9225;BME280;4647;48.072;11.616;2024-03-23T01:41:05;94724.31;;;7.70;83.16
9225;BME280;4647;48.072;11.616;2024-03-23T01:43:34;94727.06;;;7.67;83.62
9225;BME280;4647;48.072;11.616;2024-03-23T01:45:59;94718.47;;;7.76;83.52
9225;BME280;4647;48.072;11.616;2024-03-23T01:48:25;94717.84;;;7.64;83.92
9225;BME280;4647;48.072;11.616;2024-03-23T01:50:51;94715.63;;;7.56;84.22
9225;BME280;4647;48.072;11.616;2024-03-23T01:53:17;94721.75;;;7.60;84.26
9225;BME280;4647;48.072;11.616;2024-03-23T01:55:43;94717.94;;;7.54;84.48
9225;BME280;4647;48.072;11.616;2024-03-23T01:58:09;94713.81;;;7.46;84.57
9225;BME280;4647;48.072;11.616;2024-03-23T02:00:38;94705.88;;;7.31;85.14
9225;BME280;4647;48.072;11.616;2024-03-23T02:03:22;94708.72;;;7.21;85.55
9225;BME280;4647;48.072;11.616;2024-03-23T02:05:48;94699.56;;;7.15;85.81
9225;BME280;4647;48.072;11.616;2024-03-23T02:08:14;94701.84;;;7.16;85.97
9225;BME280;4647;48.072;11.616;2024-03-23T02:10:40;94699.59;;;7.11;86.17
9225;BME280;4647;48.072;11.616;2024-03-23T02:13:05;94698.13;;;7.03;86.40
9225;BME280;4647;48.072;11.616;2024-03-23T02:15:31;94697.03;;;6.97;86.67
9225;BME280;4647;48.072;11.616;2024-03-23T02:18:00;94691.59;;;7.00;86.71
9225;BME280;4647;48.072;11.616;2024-03-23T02:20:25;94687.81;;;6.94;87.00
9225;BME280;4647;48.072;11.616;2024-03-23T02:22:54;94686.34;;;6.90;87.19
9225;BME280;4647;48.072;11.616;2024-03-23T02:25:20;94680.19;;;6.89;87.19
9225;BME280;4647;48.072;11.616;2024-03-23T02:27:45;94673.97;;;6.96;86.97
9225;BME280;4647;48.072;11.616;2024-03-23T02:30:11;94674.72;;;6.96;86.76
9225;BME280;4647;48.072;11.616;2024-03-23T02:32:37;94674.50;;;7.18;85.90
9225;BME280;4647;48.072;11.616;2024-03-23T02:35:03;94674.38;;;7.28;84.86
9225;BME280;4647;48.072;11.616;2024-03-23T02:37:29;94672.94;;;7.51;83.92
9225;BME280;4647;48.072;11.616;2024-03-23T02:39:58;94666.53;;;7.41;84.05
9225;BME280;4647;48.072;11.616;2024-03-23T02:42:23;94661.84;;;7.45;83.69
9225;BME280;4647;48.072;11.616;2024-03-23T02:44:49;94650.22;;;7.52;83.38
9225;BME280;4647;48.072;11.616;2024-03-23T02:47:15;94651.84;;;7.46;83.74
9225;BME280;4647;48.072;11.616;2024-03-23T02:49:41;94650.63;;;7.50;83.58
9225;BME280;4647;48.072;11.616;2024-03-23T02:52:06;94652.91;;;7.52;83.47
9225;BME280;4647;48.072;11.616;2024-03-23T02:54:32;94650.72;;;7.43;83.73
9225;BME280;4647;48.072;11.616;2024-03-23T02:57:01;94645.63;;;7.49;83.70
9225;BME280;4647;48.072;11.616;2024-03-23T02:59:26;94648.03;;;7.43;83.62
9225;BME280;4647;48.072;11.616;2024-03-23T03:01:52;94644.25;;;7.37;83.87
9225;BME280;4647;48.072;11.616;2024-03-23T03:04:18;94646.44;;;7.46;83.46
9225;BME280;4647;48.072;11.616;2024-03-23T03:06:46;94640.91;;;7.56;82.95
9225;BME280;4647;48.072;11.616;2024-03-23T03:09:12;94641.59;;;7.64;82.43
9225;BME280;4647;48.072;11.616;2024-03-23T03:11:38;94642.41;;;7.61;82.23
9225;BME280;4647;48.072;11.616;2024-03-23T03:14:06;94639.97;;;7.70;81.86
9225;BME280;4647;48.072;11.616;2024-03-23T03:16:41;94633.09;;;7.65;81.76
9225;BME280;4647;48.072;11.616;2024-03-23T03:19:06;94625.47;;;7.60;81.72
9225;BME280;4647;48.072;11.616;2024-03-23T03:21:32;94630.81;;;7.64;81.40
9225;BME280;4647;48.072;11.616;2024-03-23T03:23:58;94630.00;;;7.67;81.66
9225;BME280;4647;48.072;11.616;2024-03-23T03:26:24;94631.28;;;7.59;81.61
9225;BME280;4647;48.072;11.616;2024-03-23T03:28:50;94620.97;;;7.50;82.20
9225;BME280;4647;48.072;11.616;2024-03-23T03:31:25;94625.66;;;7.46;82.17
9225;BME280;4647;48.072;11.616;2024-03-23T03:33:51;94620.56;;;7.52;82.35
9225;BME280;4647;48.072;11.616;2024-03-23T03:36:17;94616.41;;;7.47;82.25
9225;BME280;4647;48.072;11.616;2024-03-23T03:38:42;94612.69;;;7.64;81.64
9225;BME280;4647;48.072;11.616;2024-03-23T03:41:08;94605.97;;;7.49;81.64
9225;BME280;4647;48.072;11.616;2024-03-23T03:43:34;94602.72;;;7.61;81.66
9225;BME280;4647;48.072;11.616;2024-03-23T03:46:00;94602.72;;;7.61;81.40
9225;BME280;4647;48.072;11.616;2024-03-23T03:48:29;94593.97;;;7.54;81.51
9225;BME280;4647;48.072;11.616;2024-03-23T03:50:55;94599.81;;;7.49;81.66
9225;BME280;4647;48.072;11.616;2024-03-23T03:53:21;94595.94;;;7.50;81.61
9225;BME280;4647;48.072;11.616;2024-03-23T03:55:47;94599.34;;;7.54;81.37
9225;BME280;4647;48.072;11.616;2024-03-23T03:58:13;94594.72;;;7.54;81.37
9225;BME280;4647;48.072;11.616;2024-03-23T04:00:38;94587.69;;;7.64;80.92
9225;BME280;4647;48.072;11.616;2024-03-23T04:03:05;94579.06;;;7.73;80.30
9225;BME280;4647;48.072;11.616;2024-03-23T04:05:33;94580.50;;;7.81;79.91
9225;BME280;4647;48.072;11.616;2024-03-23T04:07:59;94579.81;;;7.73;80.18
9225;BME280;4647;48.072;11.616;2024-03-23T04:10:25;94576.44;;;7.69;80.22
9225;BME280;4647;48.072;11.616;2024-03-23T04:12:50;94576.19;;;7.60;80.19
9225;BME280;4647;48.072;11.616;2024-03-23T04:15:17;94568.69;;;7.44;81.16
9225;BME280;4647;48.072;11.616;2024-03-23T04:17:44;94571.09;;;7.38;81.42
9225;BME280;4647;48.072;11.616;2024-03-23T04:20:11;94567.59;;;7.42;81.26
9225;BME280;4647;48.072;11.616;2024-03-23T04:22:39;94558.16;;;7.26;81.79
9225;BME280;4647;48.072;11.616;2024-03-23T04:25:06;94550.53;;;7.21;82.34
9225;BME280;4647;48.072;11.616;2024-03-23T04:27:32;94549.31;;;7.26;82.38
9225;BME280;4647;48.072;11.616;2024-03-23T04:29:58;94547.38;;;7.53;81.11
9225;BME280;4647;48.072;11.616;2024-03-23T04:32:24;94542.50;;;7.45;81.22
9225;BME280;4647;48.072;11.616;2024-03-23T04:34:49;94538.88;;;7.55;80.88
9225;BME280;4647;48.072;11.616;2024-03-23T04:37:15;94525.56;;;7.71;80.12
9225;BME280;4647;48.072;11.616;2024-03-23T04:39:44;94529.34;;;7.50;80.65
9225;BME280;4647;48.072;11.616;2024-03-23T04:42:10;94530.66;;;7.38;80.99
9225;BME280;4647;48.072;11.616;2024-03-23T04:44:36;94526.09;;;7.35;80.97
9225;BME280;4647;48.072;11.616;2024-03-23T04:47:02;94521.88;;;7.34;81.00
9225;BME280;4647;48.072;11.616;2024-03-23T04:49:27;94518.41;;;7.34;80.82
9225;BME280;4647;48.072;11.616;2024-03-23T04:51:53;94513.22;;;7.47;80.21
9225;BME280;4647;48.072;11.616;2024-03-23T04:54:19;94514.38;;;7.46;80.08
9225;BME280;4647;48.072;11.616;2024-03-23T04:56:47;94503.97;;;7.48;79.90
9225;BME280;4647;48.072;11.616;2024-03-23T04:59:13;94500.94;;;7.69;78.81
9225;BME280;4647;48.072;11.616;2024-03-23T05:01:39;94498.00;;;7.60;78.88
9225;BME280;4647;48.072;11.616;2024-03-23T05:04:05;94486.81;;;7.61;78.78
9225;BME280;4647;48.072;11.616;2024-03-23T05:06:31;94477.31;;;7.77;77.93
9225;BME280;4647;48.072;11.616;2024-03-23T05:08:57;94478.31;;;7.86;77.31
9225;BME280;4647;48.072;11.616;2024-03-23T05:11:22;94469.28;;;7.73;77.34
9225;BME280;4647;48.072;11.616;2024-03-23T05:13:51;94464.84;;;7.86;76.78
9225;BME280;4647;48.072;11.616;2024-03-23T05:16:17;94464.94;;;7.79;76.95
9225;BME280;4647;48.072;11.616;2024-03-23T05:18:42;94457.16;;;7.85;76.37
9225;BME280;4647;48.072;11.616;2024-03-23T05:21:08;94461.72;;;7.88;76.20
9225;BME280;4647;48.072;11.616;2024-03-23T05:23:34;94459.59;;;7.99;75.89
9225;BME280;4647;48.072;11.616;2024-03-23T05:26:00;94464.31;;;8.15;75.20
9225;BME280;4647;48.072;11.616;2024-03-23T05:28:26;94462.06;;;8.33;74.51
9225;BME280;4647;48.072;11.616;2024-03-23T05:30:55;94467.16;;;8.27;74.68
9225;BME280;4647;48.072;11.616;2024-03-23T05:33:21;94468.97;;;8.14;75.17
9225;BME280;4647;48.072;11.616;2024-03-23T05:35:56;94463.56;;;8.14;75.18
9225;BME280;4647;48.072;11.616;2024-03-23T05:38:22;94455.41;;;8.18;75.02
9225;BME280;4647;48.072;11.616;2024-03-23T05:40:53;94454.50;;;8.24;74.41
9225;BME280;4647;48.072;11.616;2024-03-23T05:43:22;94461.38;;;8.49;73.49
9225;BME280;4647;48.072;11.616;2024-03-23T05:45:55;94458.97;;;8.54;73.19
9225;BME280;4647;48.072;11.616;2024-03-23T05:48:22;94455.97;;;8.69;72.29
9225;BME280;4647;48.072;11.616;2024-03-23T05:50:48;94452.66;;;8.81;71.45
9225;BME280;4647;48.072;11.616;2024-03-23T05:53:14;94449.28;;;8.93;71.08
9225;BME280;4647;48.072;11.616;2024-03-23T05:55:40;94453.03;;;8.99;70.39
9225;BME280;4647;48.072;11.616;2024-03-23T05:58:06;94455.06;;;9.11;69.36
9225;BME280;4647;48.072;11.616;2024-03-23T06:00:32;94440.81;;;9.11;69.85
9225;BME280;4647;48.072;11.616;2024-03-23T06:03:00;94442.59;;;9.17;69.65
9225;BME280;4647;48.072;11.616;2024-03-23T06:05:26;94437.28;;;9.30;69.17
9225;BME280;4647;48.072;11.616;2024-03-23T06:07:52;94441.41;;;9.35;68.78
9225;BME280;4647;48.072;11.616;2024-03-23T06:10:18;94438.53;;;9.42;68.47
9225;BME280;4647;48.072;11.616;2024-03-23T06:12:46;94434.00;;;9.71;67.87
9225;BME280;4647;48.072;11.616;2024-03-23T06:15:12;94430.88;;;9.73;67.13
9225;BME280;4647;48.072;11.616;2024-03-23T06:17:38;94426.34;;;9.82;66.61
9225;BME280;4647;48.072;11.616;2024-03-23T06:20:07;94414.91;;;9.91;65.96
9225;BME280;4647;48.072;11.616;2024-03-23T06:22:33;94427.00;;;10.03;65.63
9225;BME280;4647;48.072;11.616;2024-03-23T06:24:59;94419.00;;;10.12;64.91
9225;BME280;4647;48.072;11.616;2024-03-23T06:27:25;94409.91;;;10.35;64.89
9225;BME280;4647;48.072;11.616;2024-03-23T06:29:51;94409.22;;;10.60;63.98
9225;BME280;4647;48.072;11.616;2024-03-23T06:32:17;94404.50;;;10.89;63.18
9225;BME280;4647;48.072;11.616;2024-03-23T06:34:43;94400.28;;;11.01;63.05
9225;BME280;4647;48.072;11.616;2024-03-23T06:37:12;94395.38;;;11.08;62.66
9225;BME280;4647;48.072;11.616;2024-03-23T06:39:38;94381.53;;;11.19;62.51
9225;BME280;4647;48.072;11.616;2024-03-23T06:42:05;94382.97;;;11.58;61.40
9225;BME280;4647;48.072;11.616;2024-03-23T06:44:31;94371.22;;;11.87;60.47
9225;BME280;4647;48.072;11.616;2024-03-23T06:46:57;94351.78;;;12.10;59.48
9225;BME280;4647;48.072;11.616;2024-03-23T06:49:23;94342.94;;;12.19;58.65
9225;BME280;4647;48.072;11.616;2024-03-23T06:51:49;94339.59;;;12.15;58.98
9225;BME280;4647;48.072;11.616;2024-03-23T06:54:18;94332.22;;;12.15;59.12
9225;BME280;4647;48.072;11.616;2024-03-23T06:56:44;94325.19;;;12.27;59.39
9225;BME280;4647;48.072;11.616;2024-03-23T06:59:11;94334.19;;;12.46;58.92
9225;BME280;4647;48.072;11.616;2024-03-23T07:01:39;94336.03;;;12.49;59.47
9225;BME280;4647;48.072;11.616;2024-03-23T07:04:05;94335.06;;;12.65;59.37
9225;BME280;4647;48.072;11.616;2024-03-23T07:06:31;94332.56;;;12.79;58.93
9225;BME280;4647;48.072;11.616;2024-03-23T07:08:57;94326.94;;;13.14;57.79
9225;BME280;4647;48.072;11.616;2024-03-23T07:11:25;94321.63;;;13.50;56.53
9225;BME280;4647;48.072;11.616;2024-03-23T07:13:52;94314.97;;;13.70;55.96
9225;BME280;4647;48.072;11.616;2024-03-23T07:16:18;94325.09;;;13.88;55.71
9225;BME280;4647;48.072;11.616;2024-03-23T07:18:44;94315.25;;;14.08;55.44
9225;BME280;4647;48.072;11.616;2024-03-23T07:21:10;94314.50;;;14.45;54.76
9225;BME280;4647;48.072;11.616;2024-03-23T07:23:36;94314.88;;;14.70;54.58
9225;BME280;4647;48.072;11.616;2024-03-23T07:26:08;94312.28;;;14.76;54.45
9225;BME280;4647;48.072;11.616;2024-03-23T07:28:42;94325.28;;;14.81;54.39
9225;BME280;4647;48.072;11.616;2024-03-23T07:31:10;94320.19;;;14.56;54.51
9225;BME280;4647;48.072;11.616;2024-03-23T07:33:37;94317.31;;;14.68;55.30
9225;BME280;4647;48.072;11.616;2024-03-23T07:36:04;94330.84;;;14.87;55.00
9225;BME280;4647;48.072;11.616;2024-03-23T07:38:31;94342.44;;;15.05;55.03
9225;BME280;4647;48.072;11.616;2024-03-23T07:41:04;94343.97;;;15.40;54.26
9225;BME280;4647;48.072;11.616;2024-03-23T07:43:30;94347.66;;;15.27;54.21
9225;BME280;4647;48.072;11.616;2024-03-23T07:45:59;94353.56;;;14.93;54.43
9225;BME280;4647;48.072;11.616;2024-03-23T07:48:26;94379.38;;;14.64;55.74
9225;BME280;4647;48.072;11.616;2024-03-23T07:51:02;94380.91;;;14.38;56.88
9225;BME280;4647;48.072;11.616;2024-03-23T07:53:28;94418.47;;;13.97;58.70
9225;BME280;4647;48.072;11.616;2024-03-23T07:55:55;94430.41;;;13.10;64.00
9225;BME280;4647;48.072;11.616;2024-03-23T07:58:21;94449.69;;;12.50;67.63
9225;BME280;4647;48.072;11.616;2024-03-23T08:00:47;94455.63;;;12.36;69.27
9225;BME280;4647;48.072;11.616;2024-03-23T08:03:18;94460.94;;;12.05;70.65
9225;BME280;4647;48.072;11.616;2024-03-23T08:05:44;94466.84;;;11.91;71.90
9225;BME280;4647;48.072;11.616;2024-03-23T08:08:10;94453.84;;;11.86;72.22
9225;BME280;4647;48.072;11.616;2024-03-23T08:10:36;94501.06;;;11.63;73.58
9225;BME280;4647;48.072;11.616;2024-03-23T08:13:02;94494.19;;;11.33;75.51
9225;BME280;4647;48.072;11.616;2024-03-23T08:15:30;94472.06;;;11.09;76.99
9225;BME280;4647;48.072;11.616;2024-03-23T08:17:56;94488.97;;;11.00;78.98
9225;BME280;4647;48.072;11.616;2024-03-23T08:20:24;94490.53;;;10.85;80.38
9225;BME280;4647;48.072;11.616;2024-03-23T08:22:50;94504.78;;;10.60;82.37
9225;BME280;4647;48.072;11.616;2024-03-23T08:25:16;94525.06;;;10.39;84.89
9225;BME280;4647;48.072;11.616;2024-03-23T08:27:44;94518.25;;;10.19;87.92
9225;BME280;4647;48.072;11.616;2024-03-23T08:30:10;94523.16;;;9.91;90.47
9225;BME280;4647;48.072;11.616;2024-03-23T08:32:36;94525.19;;;9.87;92.42
9225;BME280;4647;48.072;11.616;2024-03-23T08:35:02;94525.75;;;9.62;94.18
9225;BME280;4647;48.072;11.616;2024-03-23T08:37:31;94521.03;;;9.50;95.82
9225;BME280;4647;48.072;11.616;2024-03-23T08:39:57;94542.59;;;9.53;95.18
9225;BME280;4647;48.072;11.616;2024-03-23T08:42:22;94552.09;;;9.42;97.39
9225;BME280;4647;48.072;11.616;2024-03-23T08:44:48;94568.41;;;9.38;98.26
9225;BME280;4647;48.072;11.616;2024-03-23T08:47:15;94573.56;;;9.13;96.40
9225;BME280;4647;48.072;11.616;2024-03-23T08:49:40;94572.09;;;8.69;97.07
9225;BME280;4647;48.072;11.616;2024-03-23T08:52:06;94595.16;;;8.26;98.00
9225;BME280;4647;48.072;11.616;2024-03-23T08:54:35;94596.88;;;8.17;99.32
9225;BME280;4647;48.072;11.616;2024-03-23T08:57:01;94599.00;;;8.06;100.00
9225;BME280;4647;48.072;11.616;2024-03-23T08:59:26;94606.47;;;7.94;100.00
9225;BME280;4647;48.072;11.616;2024-03-23T09:01:53;94618.78;;;7.95;100.00
9225;BME280;4647;48.072;11.616;2024-03-23T09:04:19;94639.59;;;7.95;100.00
9225;BME280;4647;48.072;11.616;2024-03-23T09:06:44;94646.94;;;7.94;100.00
9225;BME280;4647;48.072;11.616;2024-03-23T09:09:11;94630.63;;;8.01;100.00
9225;BME280;4647;48.072;11.616;2024-03-23T09:11:40;94641.44;;;8.01;100.00
9225;BME280;4647;48.072;11.616;2024-03-23T09:14:06;94651.09;;;7.99;100.00
9225;BME280;4647;48.072;11.616;2024-03-23T09:16:32;94623.66;;;8.04;100.00
9225;BME280;4647;48.072;11.616;2024-03-23T09:18:57;94632.13;;;8.06;99.95
9225;BME280;4647;48.072;11.616;2024-03-23T09:21:23;94636.25;;;8.14;100.00
9225;BME280;4647;48.072;11.616;2024-03-23T09:23:49;94639.09;;;8.27;100.00
9225;BME280;4647;48.072;11.616;2024-03-23T09:26:15;94639.69;;;8.15;100.00
9225;BME280;4647;48.072;11.616;2024-03-23T09:28:44;94644.81;;;8.09;100.00
9225;BME280;4647;48.072;11.616;2024-03-23T09:31:09;94654.81;;;8.09;100.00
9225;BME280;4647;48.072;11.616;2024-03-23T09:33:36;94648.81;;;7.97;100.00
9225;BME280;4647;48.072;11.616;2024-03-23T09:36:03;94653.44;;;7.97;100.00
9225;BME280;4647;48.072;11.616;2024-03-23T09:38:29;94648.56;;;7.88;100.00
9225;BME280;4647;48.072;11.616;2024-03-23T09:40:56;94667.22;;;8.02;99.11
9225;BME280;4647;48.072;11.616;2024-03-23T09:43:22;94665.50;;;7.89;99.17
9225;BME280;4647;48.072;11.616;2024-03-23T09:45:51;94675.25;;;7.79;100.00
9225;BME280;4647;48.072;11.616;2024-03-23T09:48:17;94676.91;;;7.73;99.50
9225;BME280;4647;48.072;11.616;2024-03-23T09:50:44;94682.91;;;7.54;99.17
9225;BME280;4647;48.072;11.616;2024-03-23T09:53:11;94708.16;;;7.36;99.00
9225;BME280;4647;48.072;11.616;2024-03-23T09:55:38;94691.44;;;7.18;96.24
9225;BME280;4647;48.072;11.616;2024-03-23T09:58:05;94708.34;;;7.19;94.46
9225;BME280;4647;48.072;11.616;2024-03-23T10:00:31;94705.75;;;7.12;97.42
9225;BME280;4647;48.072;11.616;2024-03-23T10:03:01;94716.28;;;6.95;96.59
9225;BME280;4647;48.072;11.616;2024-03-23T10:05:27;94726.28;;;6.95;97.30
9225;BME280;4647;48.072;11.616;2024-03-23T10:07:53;94727.06;;;6.95;97.30
9225;BME280;4647;48.072;11.616;2024-03-23T10:10:19;94737.38;;;7.00;97.98
9225;BME280;4647;48.072;11.616;2024-03-23T10:12:46;94734.28;;;7.02;99.20
9225;BME280;4647;48.072;11.616;2024-03-23T10:15:18;94740.16;;;6.93;98.15
9225;BME280;4647;48.072;11.616;2024-03-23T10:17:45;94728.66;;;6.86;96.72
9225;BME280;4647;48.072;11.616;2024-03-23T10:20:19;94741.00;;;6.87;95.71
9225;BME280;4647;48.072;11.616;2024-03-23T10:22:45;94733.34;;;6.78;96.04
9225;BME280;4647;48.072;11.616;2024-03-23T10:25:12;94717.97;;;6.78;96.62
9225;BME280;4647;48.072;11.616;2024-03-23T10:27:38;94727.91;;;6.89;97.19
9225;BME280;4647;48.072;11.616;2024-03-23T10:30:09;94720.91;;;6.95;97.92
9225;BME280;4647;48.072;11.616;2024-03-23T10:32:38;94717.38;;;7.01;97.08
9225;BME280;4647;48.072;11.616;2024-03-23T10:35:20;94724.44;;;6.88;96.40
9225;BME280;4647;48.072;11.616;2024-03-23T10:37:46;94727.75;;;7.03;98.37
9225;BME280;4647;48.072;11.616;2024-03-23T10:40:12;94733.94;;;7.00;98.37
9225;BME280;4647;48.072;11.616;2024-03-23T10:42:38;94735.38;;;7.08;98.45
9225;BME280;4647;48.072;11.616;2024-03-23T10:45:06;94741.84;;;7.18;97.83
9225;BME280;4647;48.072;11.616;2024-03-23T10:47:34;94756.63;;;6.99;96.65
9225;BME280;4647;48.072;11.616;2024-03-23T10:50:01;94770.94;;;6.92;99.04
9225;BME280;4647;48.072;11.616;2024-03-23T10:52:29;94774.06;;;6.87;97.21
9225;BME280;4647;48.072;11.616;2024-03-23T10:54:56;94786.06;;;6.75;98.83
9225;BME280;4647;48.072;11.616;2024-03-23T10:57:27;94797.25;;;6.74;99.05
9225;BME280;4647;48.072;11.616;2024-03-23T10:59:55;94804.22;;;6.68;100.00
9225;BME280;4647;48.072;11.616;2024-03-23T11:02:22;94785.78;;;6.66;97.63
9225;BME280;4647;48.072;11.616;2024-03-23T11:04:48;94794.59;;;6.70;95.86
9225;BME280;4647;48.072;11.616;2024-03-23T11:07:32;94798.97;;;6.46;95.85
9225;BME280;4647;48.072;11.616;2024-03-23T11:09:59;94807.06;;;6.43;97.58
9225;BME280;4647;48.072;11.616;2024-03-23T11:12:30;94807.34;;;6.59;97.83
9225;BME280;4647;48.072;11.616;2024-03-23T11:14:59;94806.16;;;6.64;96.53
9225;BME280;4647;48.072;11.616;2024-03-23T11:17:26;94809.22;;;6.62;96.09
9225;BME280;4647;48.072;11.616;2024-03-23T11:19:53;94807.16;;;6.84;95.65
9225;BME280;4647;48.072;11.616;2024-03-23T11:22:40;94810.50;;;6.99;94.36
9225;BME280;4647;48.072;11.616;2024-03-23T11:25:20;94808.06;;;7.15;93.43
9225;BME280;4647;48.072;11.616;2024-03-23T11:27:47;94811.13;;;7.17;93.21
9225;BME280;4647;48.072;11.616;2024-03-23T11:30:18;94795.25;;;7.26;93.41
9225;BME280;4647;48.072;11.616;2024-03-23T11:32:44;94792.81;;;7.39;93.13
9225;BME280;4647;48.072;11.616;2024-03-23T11:35:11;94782.28;;;7.52;92.46
9225;BME280;4647;48.072;11.616;2024-03-23T11:38:04;94777.97;;;7.61;92.57
9225;BME280;4647;48.072;11.616;2024-03-23T11:40:30;94795.47;;;7.43;86.56
9225;BME280;4647;48.072;11.616;2024-03-23T11:42:57;94789.84;;;7.26;86.75
9225;BME280;4647;48.072;11.616;2024-03-23T11:45:23;94803.41;;;7.19;88.30
9225;BME280;4647;48.072;11.616;2024-03-23T11:48:01;94801.16;;;7.14;89.96
9225;BME280;4647;48.072;11.616;2024-03-23T11:50:27;94777.50;;;7.29;88.48
9225;BME280;4647;48.072;11.616;2024-03-23T11:52:53;94795.97;;;7.34;87.17
9225;BME280;4647;48.072;11.616;2024-03-23T11:55:39;94782.88;;;7.32;85.73
9225;BME280;4647;48.072;11.616;2024-03-23T11:58:06;94778.06;;;7.51;86.33
9225;BME280;4647;48.072;11.616;2024-03-23T12:00:32;94786.81;;;7.62;85.10
9225;BME280;4647;48.072;11.616;2024-03-23T12:03:00;94788.22;;;7.74;85.93
9225;BME280;4647;48.072;11.616;2024-03-23T12:05:26;94794.78;;;7.73;86.51
9225;BME280;4647;48.072;11.616;2024-03-23T12:07:52;94793.44;;;7.88;85.81
9225;BME280;4647;48.072;11.616;2024-03-23T12:10:19;94802.03;;;8.10;85.24
9225;BME280;4647;48.072;11.616;2024-03-23T12:13:00;94790.03;;;7.84;84.95
9225;BME280;4647;48.072;11.616;2024-03-23T12:15:27;94789.22;;;7.87;85.73
9225;BME280;4647;48.072;11.616;2024-03-23T12:18:06;94784.94;;;7.89;84.88
9225;BME280;4647;48.072;11.616;2024-03-23T12:20:32;94753.56;;;7.72;86.21
9225;BME280;4647;48.072;11.616;2024-03-23T12:23:05;94758.91;;;7.76;84.68
9225;BME280;4647;48.072;11.616;2024-03-23T12:25:31;94767.25;;;7.88;85.24
9225;BME280;4647;48.072;11.616;2024-03-23T12:28:00;94776.56;;;7.80;84.08
9225;BME280;4647;48.072;11.616;2024-03-23T12:30:26;94771.97;;;7.77;83.77
9225;BME280;4647;48.072;11.616;2024-03-23T12:32:52;94770.91;;;8.01;82.52
9225;BME280;4647;48.072;11.616;2024-03-23T12:35:18;94759.69;;;8.07;81.43
9225;BME280;4647;48.072;11.616;2024-03-23T12:37:44;94755.00;;;8.11;81.46
9225;BME280;4647;48.072;11.616;2024-03-23T12:40:10;94759.72;;;8.03;81.50
9225;BME280;4647;48.072;11.616;2024-03-23T12:42:36;94748.66;;;7.94;81.77
9225;BME280;4647;48.072;11.616;2024-03-23T12:45:06;94767.00;;;7.76;81.98
9225;BME280;4647;48.072;11.616;2024-03-23T12:47:32;94770.78;;;8.12;82.54
9225;BME280;4647;48.072;11.616;2024-03-23T12:49:58;94767.94;;;8.23;81.62
9225;BME280;4647;48.072;11.616;2024-03-23T12:52:23;94767.38;;;8.39;81.28
9225;BME280;4647;48.072;11.616;2024-03-23T12:54:49;94762.34;;;8.64;80.75
9225;BME280;4647;48.072;11.616;2024-03-23T12:57:15;94773.13;;;8.91;77.40
9225;BME280;4647;48.072;11.616;2024-03-23T12:59:41;94779.13;;;9.02;76.80
9225;BME280;4647;48.072;11.616;2024-03-23T13:02:09;94776.72;;;9.08;76.66
9225;BME280;4647;48.072;11.616;2024-03-23T13:04:35;94786.63;;;9.14;75.71
9225;BME280;4647;48.072;11.616;2024-03-23T13:07:01;94777.94;;;9.27;73.23
9225;BME280;4647;48.072;11.616;2024-03-23T13:09:27;94783.84;;;9.41;71.54
9225;BME280;4647;48.072;11.616;2024-03-23T13:11:53;94781.81;;;9.26;70.78
9225;BME280;4647;48.072;11.616;2024-03-23T13:14:19;94771.03;;;8.52;71.41
9225;BME280;4647;48.072;11.616;2024-03-23T13:16:44;94776.56;;;8.68;72.82
9225;BME280;4647;48.072;11.616;2024-03-23T13:19:13;94769.41;;;8.58;69.17
9225;BME280;4647;48.072;11.616;2024-03-23T13:21:39;94757.75;;;8.38;67.57
9225;BME280;4647;48.072;11.616;2024-03-23T13:24:05;94774.91;;;8.20;68.71
9225;BME280;4647;48.072;11.616;2024-03-23T13:26:31;94762.88;;;8.25;68.80
9225;BME280;4647;48.072;11.616;2024-03-23T13:28:57;94747.38;;;8.32;67.81
9225;BME280;4647;48.072;11.616;2024-03-23T13:31:23;94740.78;;;8.37;68.44
9225;BME280;4647;48.072;11.616;2024-03-23T13:33:49;94737.63;;;8.42;68.05
9225;BME280;4647;48.072;11.616;2024-03-23T13:36:17;94738.19;;;8.57;68.80
9225;BME280;4647;48.072;11.616;2024-03-23T13:38:43;94735.13;;;8.78;69.21
9225;BME280;4647;48.072;11.616;2024-03-23T13:41:09;94740.81;;;8.84;66.85
9225;BME280;4647;48.072;11.616;2024-03-23T13:43:35;94739.44;;;8.76;68.25
9225;BME280;4647;48.072;11.616;2024-03-23T13:46:00;94746.81;;;8.95;68.14
9225;BME280;4647;48.072;11.616;2024-03-23T13:48:27;94752.97;;;8.96;68.82
9225;BME280;4647;48.072;11.616;2024-03-23T13:51:00;94746.22;;;8.84;69.67
9225;BME280;4647;48.072;11.616;2024-03-23T13:53:28;94749.84;;;8.74;69.03
9225;BME280;4647;48.072;11.616;2024-03-23T13:55:54;94751.63;;;8.60;70.01
9225;BME280;4647;48.072;11.616;2024-03-23T13:58:20;94756.75;;;8.51;70.25
9225;BME280;4647;48.072;11.616;2024-03-23T14:00:46;94747.50;;;8.22;70.92
9225;BME280;4647;48.072;11.616;2024-03-23T14:03:13;94752.66;;;8.13;72.25
9225;BME280;4647;48.072;11.616;2024-03-23T14:05:40;94747.31;;;8.09;72.61
9225;BME280;4647;48.072;11.616;2024-03-23T14:08:06;94760.94;;;7.98;74.15
9225;BME280;4647;48.072;11.616;2024-03-23T14:10:35;94736.47;;;7.52;72.36
9225;BME280;4647;48.072;11.616;2024-03-23T14:13:01;94794.22;;;7.13;76.19